Time;durP1;ratioP1;P1;durP2;ratioP2;P2;SDS_P1;SDS_P2;PMS_P1;PMS_P2;Temp;Humidity;BMP_temperature;BMP_pressure;BME280_temperature;BME280_humidity;BME280_pressure;Samples;Min_cycle;Max_cycle;Signal;HPM_P1;HPM_P2
2023/07/21 00:01:08;;;;;;;3.57;3.27;;;18.60;99.90;;;;;;5012269;28;20576;-75
2023/07/21 00:03:34;;;;;;;5.40;3.33;;;18.60;99.90;;;;;;5015279;28;20592;-75
2023/07/21 00:06:01;;;;;;;3.67;2.70;;;18.60;99.90;;;;;;5032858;28;20924;-75
2023/07/21 00:08:28;;;;;;;4.27;2.80;;;18.60;99.90;;;;;;5032818;28;20584;-75
2023/07/21 00:10:58;;;;;;;3.13;2.87;;;18.60;99.90;;;;;;5031885;28;20601;-75
2023/07/21 00:13:27;;;;;;;3.60;3.30;;;18.60;99.90;;;;;;5032596;28;20603;-75
2023/07/21 00:15:54;;;;;;;4.13;2.27;;;18.60;99.90;;;;;;5035365;28;20955;-75
2023/07/21 00:18:20;;;;;;;4.07;3.27;;;18.60;99.90;;;;;;5063415;28;20596;-75
2023/07/21 00:20:47;;;;;;;3.87;3.47;;;18.60;99.90;;;;;;5031268;28;20618;-75
2023/07/21 00:23:12;;;;;;;3.20;2.80;;;18.70;99.90;;;;;;5043607;28;20639;-75
2023/07/21 00:25:42;;;;;;;3.43;3.13;;;18.70;99.90;;;;;;5065902;28;20578;-75
2023/07/21 00:28:07;;;;;;;4.50;4.00;;;18.70;99.90;;;;;;5052332;28;20267;-75
2023/07/21 00:30:37;;;;;;;3.57;3.20;;;18.70;99.90;;;;;;5063020;28;20714;-75
2023/07/21 00:33:03;;;;;;;3.80;3.33;;;18.70;99.90;;;;;;5057420;28;20580;-75
2023/07/21 00:35:29;;;;;;;5.30;3.80;;;18.80;99.90;;;;;;5032622;28;20610;-74
2023/07/21 00:38:01;;;;;;;3.50;3.20;;;18.80;99.90;;;;;;4999508;28;20588;-74
2023/07/21 00:40:27;;;;;;;7.30;4.67;;;18.80;99.90;;;;;;5014907;28;21273;-75
2023/07/21 00:42:54;;;;;;;4.30;3.90;;;18.80;99.90;;;;;;5015390;28;20662;-75
2023/07/21 00:45:20;;;;;;;4.27;3.83;;;18.80;99.90;;;;;;5031654;28;20600;-75
2023/07/21 00:47:47;;;;;;;5.83;4.50;;;18.80;99.90;;;;;;5031995;28;20594;-75
2023/07/21 00:50:14;;;;;;;5.00;4.50;;;18.80;99.90;;;;;;5001350;28;20224;-74
2023/07/21 00:52:40;;;;;;;4.97;4.57;;;18.80;99.90;;;;;;5049884;28;20912;-75
2023/07/21 00:55:06;;;;;;;4.70;4.30;;;18.80;99.90;;;;;;5032052;28;20590;-75
2023/07/21 00:57:33;;;;;;;6.60;5.80;;;18.80;99.90;;;;;;5021654;28;20197;-74
2023/07/21 01:00:00;;;;;;;5.73;5.13;;;18.80;99.90;;;;;;5011516;28;20670;-74
2023/07/21 01:02:27;;;;;;;9.50;5.17;;;18.80;99.90;;;;;;4995638;28;20628;-74
2023/07/21 01:04:54;;;;;;;6.10;5.53;;;18.70;99.90;;;;;;5015293;28;20583;-74
2023/07/21 01:07:21;;;;;;;7.70;6.90;;;18.80;99.90;;;;;;5050111;28;20564;-74
2023/07/21 01:09:49;;;;;;;7.50;5.87;;;18.80;99.90;;;;;;5015030;28;20623;-74
2023/07/21 01:12:14;;;;;;;6.87;6.30;;;18.80;99.90;;;;;;5031316;28;20682;-74
2023/07/21 01:14:40;;;;;;;5.97;5.47;;;18.90;99.90;;;;;;5006530;28;20718;-75
2023/07/21 01:17:23;;;;;;;8.00;7.30;;;18.90;99.90;;;;;;5030344;28;20950;-74
2023/07/21 01:19:52;;;;;;;6.10;5.50;;;18.90;99.90;;;;;;5039669;28;20706;-74
2023/07/21 01:22:35;;;;;;;5.97;5.47;;;18.90;99.90;;;;;;5014722;28;20635;-74
2023/07/21 01:25:13;;;;;;;7.13;6.43;;;19.00;99.90;;;;;;5015614;28;20599;-74
2023/07/21 01:27:40;;;;;;;6.20;5.60;;;19.00;99.90;;;;;;5031473;28;21402;-75
2023/07/21 01:30:09;;;;;;;5.83;5.33;;;19.00;99.90;;;;;;5031401;28;20937;-75
2023/07/21 01:32:37;;;;;;;7.00;6.47;;;19.10;99.90;;;;;;5014626;28;20916;-75
2023/07/21 01:35:04;;;;;;;8.03;6.40;;;19.10;99.90;;;;;;5008996;28;20969;-75
2023/07/21 01:37:31;;;;;;;7.30;6.47;;;19.10;99.90;;;;;;4995552;28;20596;-75
2023/07/21 01:39:58;;;;;;;6.33;5.73;;;19.20;99.90;;;;;;4978954;28;20608;-75
2023/07/21 01:42:29;;;;;;;6.07;5.47;;;19.20;99.90;;;;;;4994862;28;20751;-75
2023/07/21 01:44:56;;;;;;;6.43;5.77;;;19.20;99.90;;;;;;5015038;28;20595;-75
2023/07/21 01:47:24;;;;;;;6.87;6.27;;;19.20;99.90;;;;;;4999508;28;20584;-75
2023/07/21 01:49:51;;;;;;;6.33;5.73;;;19.20;99.90;;;;;;5032629;28;20665;-74
2023/07/21 01:52:18;;;;;;;7.73;7.03;;;19.20;99.90;;;;;;4998485;28;20662;-74
2023/07/21 01:54:51;;;;;;;7.27;6.67;;;19.20;99.90;;;;;;4998543;28;21035;-74
2023/07/21 01:57:24;;;;;;;7.47;6.80;;;19.10;99.90;;;;;;4998905;28;20572;-75
2023/07/21 01:59:50;;;;;;;7.40;6.10;;;19.10;99.90;;;;;;4998318;28;20656;-74
2023/07/21 02:02:18;;;;;;;5.93;5.43;;;19.10;99.90;;;;;;5015134;28;21047;-74
2023/07/21 02:04:51;;;;;;;6.07;5.47;;;19.10;99.90;;;;;;4999334;28;20707;-74
2023/07/21 02:07:20;;;;;;;5.93;5.43;;;19.10;99.90;;;;;;4999461;28;20577;-74
2023/07/21 02:09:49;;;;;;;8.03;7.33;;;19.10;99.90;;;;;;4998477;28;20623;-75
2023/07/21 02:12:15;;;;;;;7.27;6.57;;;19.00;99.90;;;;;;5014826;28;20592;-74
2023/07/21 02:14:47;;;;;;;7.83;7.10;;;19.00;99.90;;;;;;5014678;28;20608;-74
2023/07/21 02:17:13;;;;;;;8.83;7.03;;;19.00;99.90;;;;;;4982017;28;20622;-75
2023/07/21 02:19:38;;;;;;;7.27;6.57;;;19.00;99.90;;;;;;5014668;28;20251;-75
2023/07/21 02:22:06;;;;;;;6.80;6.30;;;19.00;99.90;;;;;;5014801;28;20573;-75
2023/07/21 02:24:32;;;;;;;6.37;5.77;;;19.00;99.90;;;;;;4999188;28;20580;-75
2023/07/21 02:26:59;;;;;;;7.10;6.40;;;19.00;99.90;;;;;;4998186;28;20663;-75
2023/07/21 02:29:28;;;;;;;9.30;7.03;;;18.90;99.90;;;;;;5031810;28;20227;-75
2023/07/21 02:31:55;;;;;;;8.73;7.17;;;18.90;99.90;;;;;;5034412;28;20583;-75
2023/07/21 02:34:21;;;;;;;6.87;6.17;;;18.90;99.90;;;;;;5017568;28;20618;-75
2023/07/21 02:36:47;;;;;;;8.13;7.40;;;18.90;99.90;;;;;;5014899;28;20186;-75
2023/07/21 02:39:13;;;;;;;8.93;8.03;;;18.90;99.90;;;;;;5013799;28;20662;-75
2023/07/21 02:41:38;;;;;;;7.90;7.10;;;18.80;99.90;;;;;;5014313;28;20292;-75
2023/07/21 02:44:04;;;;;;;8.50;7.77;;;18.80;99.90;;;;;;4998199;28;20213;-75
2023/07/21 02:46:30;;;;;;;9.53;8.63;;;18.80;99.90;;;;;;5014690;28;20181;-75
2023/07/21 02:48:56;;;;;;;10.10;9.10;;;18.80;99.90;;;;;;5031771;28;20634;-74
2023/07/21 02:51:21;;;;;;;8.53;7.73;;;18.80;99.90;;;;;;4998296;28;20182;-75
2023/07/21 02:53:48;;;;;;;8.80;8.00;;;18.80;99.90;;;;;;5003607;28;20223;-75
2023/07/21 02:56:15;;;;;;;9.90;9.00;;;18.80;99.90;;;;;;5037226;28;20586;-74
2023/07/21 02:58:58;;;;;;;9.30;8.50;;;18.80;99.90;;;;;;5034425;28;20627;-75
2023/07/21 03:01:24;;;;;;;8.43;7.77;;;18.80;99.90;;;;;;5033570;28;20587;-75
2023/07/21 03:03:54;;;;;;;9.90;9.10;;;18.80;99.90;;;;;;5017559;28;20950;-74
2023/07/21 03:06:20;;;;;;;8.70;7.90;;;18.80;99.90;;;;;;5017321;28;20644;-75
2023/07/21 03:08:47;;;;;;;9.57;8.70;;;18.90;99.90;;;;;;5033125;28;20603;-75
2023/07/21 03:11:17;;;;;;;11.20;10.10;;;18.90;99.90;;;;;;5000849;28;20587;-75
2023/07/21 03:13:56;;;;;;;10.43;9.17;;;18.80;99.90;;;;;;5017489;28;20622;-75
2023/07/21 03:16:23;;;;;;;9.33;7.40;;;18.80;99.90;;;;;;5024876;28;20596;-74
2023/07/21 03:18:53;;;;;;;9.47;8.60;;;18.80;99.90;;;;;;4997120;28;20659;-74
2023/07/21 03:21:19;;;;;;;9.50;8.60;;;18.80;99.90;;;;;;4997626;28;21199;-74
2023/07/21 03:23:47;;;;;;;9.50;8.60;;;18.80;99.90;;;;;;4996837;28;20731;-74
2023/07/21 03:26:18;;;;;;;9.07;8.27;;;18.80;99.90;;;;;;4997754;28;20932;-74
2023/07/21 03:28:44;;;;;;;8.27;7.57;;;18.80;99.90;;;;;;5013329;28;20587;-75
2023/07/21 03:31:10;;;;;;;8.70;8.00;;;18.90;99.90;;;;;;5013585;28;20174;-75
2023/07/21 03:33:42;;;;;;;8.60;7.90;;;18.90;99.90;;;;;;4997018;28;20596;-75
2023/07/21 03:36:14;;;;;;;9.77;8.97;;;18.90;99.90;;;;;;5047557;28;20591;-75
2023/07/21 03:38:41;;;;;;;10.23;9.07;;;18.90;99.90;;;;;;5033169;28;20579;-75
2023/07/21 03:41:09;;;;;;;10.30;9.40;;;19.00;99.90;;;;;;5016789;28;20222;-75
2023/07/21 03:43:37;;;;;;;9.43;8.10;;;19.00;99.90;;;;;;5016566;28;20602;-75
2023/07/21 03:46:05;;;;;;;10.30;9.40;;;19.00;99.90;;;;;;5033203;28;21126;-75
2023/07/21 03:48:38;;;;;;;7.70;6.90;;;19.00;99.90;;;;;;5016702;28;20583;-75
2023/07/21 03:51:07;;;;;;;9.20;8.30;;;19.00;99.90;;;;;;5031937;28;20590;-75
2023/07/21 03:53:40;;;;;;;8.83;8.00;;;19.10;99.90;;;;;;5015988;28;20587;-75
2023/07/21 03:56:31;;;;;;;;;;;;;;;;;;;;;
2023/07/21 03:59:29;;;;;;;9.00;8.20;;;19.00;99.90;;;;;;5047642;28;20642;-74
2023/07/21 04:01:59;;;;;;;8.13;7.33;;;19.10;99.90;;;;;;5050259;28;20665;-75
2023/07/21 04:04:25;;;;;;;10.10;9.10;;;19.10;99.90;;;;;;5024427;28;20927;-76
2023/07/21 04:06:51;;;;;;;8.93;8.00;;;19.10;99.90;;;;;;5012219;28;20671;-76
2023/07/21 04:09:17;;;;;;;10.13;9.23;;;19.10;99.90;;;;;;5012526;28;20285;-75
2023/07/21 04:11:43;;;;;;;8.63;7.73;;;19.10;99.90;;;;;;4996221;28;20675;-76
2023/07/21 04:14:10;;;;;;;10.30;9.43;;;19.10;99.90;;;;;;4996781;28;20584;-75
2023/07/21 04:16:36;;;;;;;9.10;8.27;;;19.20;99.90;;;;;;5012794;28;20591;-75
2023/07/21 04:19:01;;;;;;;9.37;8.47;;;19.20;99.90;;;;;;5012791;28;20194;-75
2023/07/21 04:24:48;;;;;;;6.50;6.00;;;19.30;99.90;;;;;;5013051;28;20569;-75
2023/07/21 04:27:16;;;;;;;8.10;7.40;;;19.30;99.90;;;;;;4996185;28;20663;-74
2023/07/21 04:29:42;;;;;;;10.50;9.60;;;19.30;99.90;;;;;;4995823;28;20696;-73
2023/07/21 04:32:09;;;;;;;8.87;8.13;;;19.30;99.90;;;;;;5012573;28;20624;-73
2023/07/21 04:34:35;;;;;;;10.13;9.23;;;19.30;99.90;;;;;;5012145;28;20577;-73
2023/07/21 04:37:02;;;;;;;10.17;9.27;;;19.30;99.90;;;;;;4996061;28;21162;-74
2023/07/21 04:39:35;;;;;;;10.63;9.73;;;19.30;99.90;;;;;;5012096;28;20762;-74
2023/07/21 04:42:01;;;;;;;9.20;8.40;;;19.30;99.90;;;;;;5012711;28;20612;-73
2023/07/21 04:44:27;;;;;;;11.33;10.33;;;19.30;99.90;;;;;;5012461;28;20654;-74
2023/07/21 04:46:53;;;;;;;10.60;9.70;;;19.20;99.90;;;;;;5013047;28;20174;-75
2023/07/21 04:49:23;;;;;;;10.57;9.57;;;19.20;99.90;;;;;;5011734;28;21143;-75
2023/07/21 04:51:51;;;;;;;9.13;8.43;;;19.20;99.90;;;;;;4995485;28;20592;-74
2023/07/21 04:54:26;;;;;;;10.53;9.37;;;19.20;99.90;;;;;;4996833;28;20587;-75
2023/07/21 04:56:55;;;;;;;9.50;8.70;;;19.30;99.90;;;;;;4995917;28;20944;-75
2023/07/21 04:59:21;;;;;;;10.23;9.33;;;19.30;99.90;;;;;;4995460;28;20604;-75
2023/07/21 05:01:47;;;;;;;10.10;9.30;;;19.40;99.90;;;;;;5012862;28;21159;-75
2023/07/21 05:04:14;;;;;;;9.83;8.83;;;19.40;99.90;;;;;;5001967;28;20181;-75
2023/07/21 05:06:44;;;;;;;11.17;10.27;;;19.50;99.90;;;;;;5012104;28;20690;-74
2023/07/21 05:09:13;;;;;;;8.90;8.10;;;19.50;99.90;;;;;;5012299;28;20659;-74
2023/07/21 05:11:40;;;;;;;11.73;10.53;;;19.60;99.90;;;;;;4995494;28;20584;-74
2023/07/21 05:14:06;;;;;;;11.30;10.37;;;19.70;99.90;;;;;;5012525;28;20592;-75
2023/07/21 05:16:48;;;;;;;9.60;8.70;;;19.70;99.90;;;;;;5028716;28;20601;-75
2023/07/21 05:19:32;;;;;;;10.80;9.87;;;19.80;99.90;;;;;;5032455;28;20635;-74
2023/07/21 05:22:16;;;;;;;11.97;10.87;;;19.80;99.90;;;;;;5015507;28;20650;-74
2023/07/21 05:24:59;;;;;;;11.10;9.90;;;19.90;99.90;;;;;;5032737;28;20647;-74
2023/07/21 05:27:25;;;;;;;12.20;11.10;;;19.90;99.90;;;;;;5016384;28;20697;-74
2023/07/21 05:29:55;;;;;;;10.83;9.73;;;20.00;99.90;;;;;;5015575;28;20619;-75
2023/07/21 05:32:23;;;;;;;10.30;9.40;;;20.10;99.90;;;;;;5016172;28;21139;-75
2023/07/21 05:35:01;;;;;;;11.93;10.33;;;20.10;99.90;;;;;;5021015;28;21143;-75
2023/07/21 05:37:28;;;;;;;10.47;9.53;;;20.20;99.90;;;;;;5036016;28;20600;-75
2023/07/21 05:39:54;;;;;;;14.57;10.07;;;20.30;99.90;;;;;;5035036;28;21218;-74
2023/07/21 05:42:24;;;;;;;15.07;10.03;;;20.30;99.90;;;;;;5035429;28;20793;-75
2023/07/21 05:44:50;;;;;;;11.23;10.33;;;20.40;99.90;;;;;;5035210;28;20590;-75
2023/07/21 05:47:19;;;;;;;10.57;9.67;;;20.40;99.90;;;;;;5019438;28;21168;-75
2023/07/21 05:49:47;;;;;;;11.87;10.77;;;20.50;99.90;;;;;;5018123;28;20614;-74
2023/07/21 05:52:13;;;;;;;9.90;9.00;;;20.60;99.90;;;;;;5018848;28;20587;-75
2023/07/21 05:54:41;;;;;;;11.37;10.37;;;20.80;99.90;;;;;;5019220;28;20690;-75
2023/07/21 05:57:07;;;;;;;10.60;9.67;;;20.90;99.90;;;;;;5053177;28;20681;-75
2023/07/21 05:59:37;;;;;;;10.10;9.30;;;21.10;99.90;;;;;;5018714;28;20623;-75
2023/07/21 06:02:03;;;;;;;10.97;9.87;;;21.30;99.90;;;;;;5035005;28;21059;-75
2023/07/21 06:04:34;;;;;;;9.57;8.57;;;21.40;99.90;;;;;;5035455;28;20595;-75
2023/07/21 06:07:23;;;;;;;10.23;9.20;;;21.60;99.90;;;;;;5042519;28;20605;-74
2023/07/21 06:10:10;;;;;;;9.10;8.30;;;21.70;99.90;;;;;;5034975;28;20630;-74
2023/07/21 06:12:40;;;;;;;10.03;7.43;;;21.80;99.90;;;;;;5052501;28;20599;-75
2023/07/21 06:15:19;;;;;;;9.30;8.37;;;21.90;99.90;;;;;;5034435;28;21242;-75
2023/07/21 06:18:11;;;;;;;9.10;7.90;;;22.00;99.90;;;;;;5015116;28;20670;-75
2023/07/21 06:20:37;;;;;;;11.20;7.87;;;22.40;99.90;;;;;;5046254;28;20705;-75
2023/07/21 06:23:03;;;;;;;9.83;8.83;;;22.70;99.90;;;;;;5040852;28;20217;-74
2023/07/21 06:25:32;;;;;;;9.10;7.73;;;23.20;99.90;;;;;;5040828;28;20177;-75
2023/07/21 06:28:03;;;;;;;10.30;7.37;;;23.70;99.90;;;;;;5034669;28;20602;-75
2023/07/21 06:30:30;;;;;;;11.70;8.33;;;24.40;99.90;;;;;;5040802;28;20693;-75
2023/07/21 06:32:56;;;;;;;8.63;6.73;;;24.90;99.90;;;;;;5047093;28;20602;-75
2023/07/21 06:35:40;;;;;;;8.43;7.27;;;25.60;99.90;;;;;;5055793;28;20583;-74
2023/07/21 06:38:21;;;;;;;7.37;6.67;;;26.40;99.90;;;;;;5018902;28;20638;-75
2023/07/21 06:40:58;;;;;;;20.67;8.97;;;27.20;99.90;;;;;;5017692;28;20772;-75
2023/07/21 06:43:43;;;;;;;16.90;8.17;;;27.90;99.90;;;;;;5035063;28;20953;-75
2023/07/21 06:46:34;;;;;;;15.13;7.60;;;28.70;99.90;;;;;;5040783;28;20594;-75
2023/07/21 06:49:02;;;;;;;6.97;6.37;;;29.50;99.90;;;;;;5060847;28;20718;-75
2023/07/21 06:51:38;;;;;;;8.03;7.23;;;29.90;99.90;;;;;;5026564;28;20669;-73
2023/07/21 06:54:08;;;;;;;10.23;7.03;;;30.40;99.90;;;;;;5008656;28;20671;-72
2023/07/21 06:56:34;;;;;;;5.60;5.10;;;30.90;99.90;;;;;;4997729;28;20634;-73
2023/07/21 06:59:01;;;;;;;5.07;4.47;;;31.40;99.90;;;;;;5013958;28;20629;-74
2023/07/21 07:01:27;;;;;;;6.00;5.40;;;31.60;99.90;;;;;;5013739;28;20615;-73
2023/07/21 07:03:53;;;;;;;5.37;4.67;;;31.60;99.90;;;;;;4998314;28;21136;-72
2023/07/21 07:06:19;;;;;;;5.20;4.67;;;31.60;99.90;;;;;;4996749;28;20181;-73
2023/07/21 07:08:44;;;;;;;5.90;5.33;;;31.60;99.80;;;;;;5022069;28;20179;-73
2023/07/21 07:11:11;;;;;;;6.13;5.53;;;31.60;99.00;;;;;;5049819;28;20168;-74
2023/07/21 07:13:40;;;;;;;5.77;5.27;;;31.60;98.40;;;;;;5049602;28;20173;-74
2023/07/21 07:16:06;;;;;;;5.60;5.10;;;31.70;98.10;;;;;;5014581;28;20593;-73
2023/07/21 07:18:34;;;;;;;5.77;5.27;;;31.70;97.80;;;;;;5023144;28;20591;-74
2023/07/21 07:21:00;;;;;;;6.20;5.70;;;31.80;97.10;;;;;;5015627;28;20596;-73
2023/07/21 07:23:27;;;;;;;6.27;5.67;;;31.70;96.30;;;;;;5033411;28;20738;-74
2023/07/21 07:25:53;;;;;;;5.60;4.80;;;31.70;95.80;;;;;;5017350;28;20683;-74
2023/07/21 07:28:20;;;;;;;7.10;6.50;;;31.50;94.60;;;;;;5033036;28;20173;-75
2023/07/21 07:30:47;;;;;;;6.37;5.87;;;31.30;94.20;;;;;;5050792;28;21282;-74
2023/07/21 07:33:16;;;;;;;6.03;5.53;;;31.30;94.30;;;;;;5051072;28;20610;-75
2023/07/21 07:35:49;;;;;;;7.63;5.47;;;31.30;94.20;;;;;;5026930;28;20677;-74
2023/07/21 07:38:18;;;;;;;6.23;5.57;;;31.10;92.80;;;;;;5011395;28;20581;-74
2023/07/21 07:40:47;;;;;;;5.37;4.63;;;30.90;92.70;;;;;;4992886;28;20628;-75
2023/07/21 07:43:13;;;;;;;7.07;6.47;;;30.70;92.80;;;;;;5011231;28;20627;-74
2023/07/21 07:45:38;;;;;;;7.17;6.23;;;30.40;92.20;;;;;;4993793;28;20597;-75
2023/07/21 07:48:07;;;;;;;6.67;6.13;;;30.10;92.10;;;;;;4993973;28;20940;-74
2023/07/21 07:50:40;;;;;;;6.40;5.80;;;30.00;92.50;;;;;;5011009;28;20194;-74
2023/07/21 07:53:06;;;;;;;7.07;6.40;;;29.90;92.10;;;;;;4977585;28;21228;-75
2023/07/21 07:55:38;;;;;;;6.50;5.90;;;30.10;92.90;;;;;;5012997;28;20650;-74
2023/07/21 07:58:05;;;;;;;6.47;5.77;;;30.30;92.70;;;;;;5013099;28;20592;-74
2023/07/21 08:00:33;;;;;;;7.23;6.63;;;30.70;93.70;;;;;;5012741;28;21178;-74
2023/07/21 08:02:59;;;;;;;6.30;5.80;;;31.10;93.30;;;;;;5012691;28;20648;-74
2023/07/21 08:05:25;;;;;;;5.87;5.37;;;31.20;92.50;;;;;;5030399;28;20588;-74
2023/07/21 08:07:51;;;;;;;7.13;6.47;;;31.20;92.10;;;;;;4980215;28;20630;-75
2023/07/21 08:10:17;;;;;;;6.47;5.87;;;31.40;91.40;;;;;;5008277;28;20699;-72
2023/07/21 08:12:42;;;;;;;6.20;5.70;;;31.70;91.40;;;;;;5025973;28;20639;-72
2023/07/21 08:15:09;;;;;;;5.67;5.27;;;31.90;91.10;;;;;;5030614;28;20216;-72
2023/07/21 08:17:38;;;;;;;6.00;5.40;;;32.00;90.50;;;;;;5021566;28;20181;-72
2023/07/21 08:20:04;;;;;;;6.53;5.93;;;32.00;88.40;;;;;;5012538;28;20974;-72
2023/07/21 08:22:30;;;;;;;7.60;6.90;;;31.80;87.40;;;;;;5012769;28;20640;-72
2023/07/21 08:24:55;;;;;;;8.83;5.90;;;31.60;86.30;;;;;;5030298;28;20592;-72
2023/07/21 08:27:21;;;;;;;5.83;5.30;;;31.40;86.00;;;;;;5030302;28;20204;-72
2023/07/21 08:29:47;;;;;;;6.57;5.90;;;31.20;86.10;;;;;;5012310;28;20197;-72
2023/07/21 08:32:13;;;;;;;5.93;5.40;;;31.10;86.00;;;;;;5012705;28;20173;-73
2023/07/21 08:34:39;;;;;;;6.13;5.67;;;30.90;85.40;;;;;;5030267;28;20643;-73
2023/07/21 08:37:05;;;;;;;6.40;5.50;;;30.60;84.90;;;;;;5030558;28;20572;-73
2023/07/21 08:39:31;;;;;;;5.90;5.07;;;30.40;85.00;;;;;;5029438;28;20616;-73
2023/07/21 08:42:00;;;;;;;5.77;5.27;;;30.20;85.20;;;;;;4995919;28;20786;-72
2023/07/21 08:44:28;;;;;;;7.50;6.60;;;29.90;84.70;;;;;;5012702;28;20584;-73
2023/07/21 08:46:53;;;;;;;5.87;5.37;;;29.70;85.00;;;;;;5030008;28;20588;-73
2023/07/21 08:49:19;;;;;;;5.47;4.97;;;29.40;85.30;;;;;;5011765;28;20632;-72
2023/07/21 08:51:45;;;;;;;5.60;5.10;;;29.30;85.50;;;;;;5027008;28;20204;-73
2023/07/21 08:54:12;;;;;;;4.80;4.40;;;29.10;85.40;;;;;;5009871;28;20651;-73
2023/07/21 08:56:38;;;;;;;4.37;3.93;;;29.00;85.20;;;;;;4992416;28;20643;-72
2023/07/21 08:59:03;;;;;;;4.47;4.17;;;28.80;85.00;;;;;;5009884;28;20728;-73
2023/07/21 09:01:29;;;;;;;5.70;4.27;;;28.80;85.30;;;;;;5009978;28;20679;-72
2023/07/21 09:03:55;;;;;;;4.17;3.77;;;28.70;85.50;;;;;;5010854;28;20166;-73
2023/07/21 09:06:20;;;;;;;4.87;4.30;;;28.80;86.20;;;;;;5010617;28;20173;-72
2023/07/21 09:08:47;;;;;;;6.50;4.07;;;28.90;86.90;;;;;;4991512;28;20185;-73
2023/07/21 09:11:14;;;;;;;4.80;4.20;;;29.00;87.60;;;;;;4992323;28;20638;-72
2023/07/21 09:13:39;;;;;;;5.97;3.90;;;29.20;87.80;;;;;;5010246;28;20584;-73
2023/07/21 09:16:06;;;;;;;4.70;3.80;;;29.40;87.40;;;;;;4976777;28;20664;-73
2023/07/21 09:18:39;;;;;;;4.13;3.13;;;29.60;86.80;;;;;;4992180;28;20170;-73
2023/07/21 09:21:05;;;;;;;4.87;3.70;;;29.90;86.20;;;;;;5004950;28;20593;-73
2023/07/21 09:23:31;;;;;;;4.37;3.97;;;30.20;86.20;;;;;;5029588;28;20984;-74
2023/07/21 09:25:59;;;;;;;4.50;3.83;;;30.50;84.80;;;;;;5012031;28;20600;-73
2023/07/21 09:28:40;;;;;;;4.07;3.77;;;30.90;84.70;;;;;;5029258;28;20586;-73
2023/07/21 09:31:06;;;;;;;3.60;3.30;;;31.50;83.80;;;;;;5011317;28;20598;-73
2023/07/21 09:33:38;;;;;;;4.60;4.23;;;32.10;85.10;;;;;;5012118;28;20597;-73
2023/07/21 09:36:05;;;;;;;7.33;3.23;;;32.50;83.20;;;;;;5011616;28;20597;-73
2023/07/21 09:38:33;;;;;;;3.60;3.03;;;33.00;81.00;;;;;;5029637;28;21083;-73
2023/07/21 09:41:06;;;;;;;4.90;4.33;;;33.10;78.90;;;;;;5029056;28;20582;-73
2023/07/21 09:43:32;;;;;;;3.63;3.33;;;33.30;76.90;;;;;;5012103;28;20638;-73
2023/07/21 09:46:00;;;;;;;3.03;2.73;;;33.30;75.30;;;;;;5029374;28;20827;-73
2023/07/21 09:48:28;;;;;;;3.20;2.83;;;33.30;73.80;;;;;;5012102;28;20587;-74
2023/07/21 09:51:04;;;;;;;4.63;3.13;;;33.30;73.20;;;;;;5010872;28;20623;-73
2023/07/21 09:53:38;;;;;;;3.10;2.50;;;33.20;70.90;;;;;;5012035;28;20591;-74
2023/07/21 09:56:05;;;;;;;3.10;2.90;;;33.00;69.80;;;;;;5011883;28;20580;-73
2023/07/21 09:58:35;;;;;;;2.60;2.40;;;32.60;69.10;;;;;;5011924;28;20589;-73
2023/07/21 10:01:03;;;;;;;2.97;2.47;;;32.50;70.10;;;;;;5011046;28;20628;-73
2023/07/21 10:03:31;;;;;;;3.00;2.70;;;32.40;70.20;;;;;;5011408;28;20629;-73
2023/07/21 10:05:58;;;;;;;2.90;2.60;;;32.30;69.20;;;;;;4999202;28;20589;-73
2023/07/21 10:08:27;;;;;;;3.37;3.07;;;32.10;68.40;;;;;;5026773;28;20676;-73
2023/07/21 10:10:58;;;;;;;4.77;3.77;;;32.00;68.10;;;;;;5012469;28;20610;-73
2023/07/21 10:13:28;;;;;;;2.70;1.93;;;31.90;68.10;;;;;;5012866;28;20575;-73
2023/07/21 10:16:45;;;;;;;3.97;1.80;;;32.10;68.80;;;;;;5013361;28;20581;-73
2023/07/21 10:19:17;;;;;;;3.30;1.53;;;32.50;70.50;;;;;;4987543;28;20622;-74
2023/07/21 10:21:53;;;;;;;2.53;1.10;;;33.10;70.70;;;;;;4995162;28;21310;-73
2023/07/21 10:24:27;;;;;;;2.30;1.20;;;33.60;68.80;;;;;;4995235;28;20189;-74
2023/07/21 10:27:00;;;;;;;2.03;1.23;;;34.20;67.90;;;;;;4995586;28;20687;-74
2023/07/21 10:29:27;;;;;;;4.33;1.40;;;34.60;67.70;;;;;;5011690;28;21182;-74
2023/07/21 10:31:57;;;;;;;2.23;1.50;;;34.70;63.70;;;;;;5013207;28;20582;-74
2023/07/21 10:34:34;;;;;;;1.83;0.80;;;34.60;60.80;;;;;;5013038;28;20999;-74
2023/07/21 10:37:02;;;;;;;2.23;1.00;;;34.50;58.50;;;;;;4978992;28;20586;-74
2023/07/21 10:39:33;;;;;;;1.83;1.17;;;34.20;58.80;;;;;;4994224;28;20995;-73
2023/07/21 10:42:04;;;;;;;2.30;1.53;;;34.00;58.00;;;;;;4994671;28;20745;-73
2023/07/21 10:44:45;;;;;;;1.77;1.03;;;33.70;57.50;;;;;;5013202;28;20595;-73
2023/07/21 10:47:21;;;;;;;3.93;2.30;;;33.40;56.80;;;;;;4995157;28;20599;-73
2023/07/21 10:49:49;;;;;;;2.67;1.40;;;33.00;55.40;;;;;;5028822;28;20627;-73
2023/07/21 10:52:15;;;;;;;1.87;1.07;;;32.70;56.10;;;;;;4998704;28;20589;-73
2023/07/21 10:54:41;;;;;;;2.83;1.40;;;32.30;55.70;;;;;;5012498;28;20597;-72
2023/07/21 10:57:08;;;;;;;2.27;1.37;;;31.90;55.60;;;;;;5011754;28;20577;-72
2023/07/21 10:59:35;;;;;;;2.17;1.23;;;31.50;55.70;;;;;;5011935;28;20197;-73
2023/07/21 11:02:03;;;;;;;2.00;1.13;;;31.20;55.90;;;;;;4993811;28;20683;-72
2023/07/21 11:04:29;;;;;;;2.40;1.30;;;30.90;56.40;;;;;;5012202;28;20588;-72
2023/07/21 11:06:57;;;;;;;2.10;1.50;;;30.60;56.10;;;;;;4994292;28;20611;-73
2023/07/21 11:09:23;;;;;;;3.20;1.27;;;30.40;56.50;;;;;;5003002;28;20664;-72
2023/07/21 11:11:52;;;;;;;2.97;1.30;;;30.10;56.60;;;;;;5031771;28;20686;-72
2023/07/21 11:14:25;;;;;;;1.80;1.20;;;29.80;56.90;;;;;;5013837;28;20668;-72
2023/07/21 11:16:55;;;;;;;2.37;1.20;;;29.50;57.10;;;;;;5031305;28;20584;-73
2023/07/21 11:19:23;;;;;;;3.10;1.20;;;29.30;57.70;;;;;;5031196;28;20616;-73
2023/07/21 11:21:49;;;;;;;2.90;1.50;;;29.10;57.70;;;;;;5022751;28;20779;-73
2023/07/21 11:24:18;;;;;;;2.40;1.40;;;28.90;58.10;;;;;;4994346;28;21212;-73
2023/07/21 11:26:46;;;;;;;2.87;1.30;;;28.80;58.20;;;;;;4978205;28;20594;-73
2023/07/21 11:29:12;;;;;;;1.77;1.30;;;28.70;58.50;;;;;;4993901;28;20617;-73
2023/07/21 11:31:38;;;;;;;2.70;1.23;;;28.60;58.90;;;;;;5011625;28;20572;-73
2023/07/21 11:34:21;;;;;;;3.70;1.60;;;28.50;58.90;;;;;;4994507;28;20664;-73
2023/07/21 11:36:48;;;;;;;4.47;1.87;;;28.40;58.30;;;;;;5011637;28;20593;-73
2023/07/21 11:39:20;;;;;;;2.10;1.40;;;28.20;58.70;;;;;;5011160;28;20605;-73
2023/07/21 11:41:53;;;;;;;2.50;1.23;;;27.90;58.60;;;;;;4993298;28;20578;-73
2023/07/21 11:44:30;;;;;;;2.17;1.43;;;27.80;59.10;;;;;;4994163;28;20586;-73
2023/07/21 11:47:05;;;;;;;3.10;1.70;;;27.60;59.20;;;;;;4993922;28;20585;-73
2023/07/21 11:49:38;;;;;;;2.57;1.70;;;27.50;59.70;;;;;;4993516;28;20620;-73
2023/07/21 11:52:05;;;;;;;2.27;1.70;;;27.30;59.90;;;;;;4993630;28;20612;-73
2023/07/21 11:54:40;;;;;;;2.10;1.60;;;27.30;60.80;;;;;;5011430;28;20593;-73
2023/07/21 11:57:07;;;;;;;1.70;1.10;;;27.30;60.60;;;;;;4993328;28;20600;-73
2023/07/21 11:59:33;;;;;;;3.30;1.40;;;27.40;61.60;;;;;;5010959;28;20680;-73
2023/07/21 12:01:59;;;;;;;4.07;1.00;;;27.50;62.00;;;;;;4993385;28;20653;-73
2023/07/21 12:04:25;;;;;;;1.73;1.17;;;27.60;62.50;;;;;;5010927;28;20621;-74
2023/07/21 12:06:51;;;;;;;2.30;1.30;;;27.80;63.00;;;;;;5011613;28;20589;-73
2023/07/21 12:09:19;;;;;;;2.70;1.30;;;27.90;63.10;;;;;;5010342;28;20613;-74
2023/07/21 12:11:45;;;;;;;2.07;1.37;;;28.10;62.90;;;;;;4977052;28;20612;-73
2023/07/21 12:14:11;;;;;;;2.00;1.20;;;28.20;62.50;;;;;;5010866;28;20593;-74
2023/07/21 12:16:37;;;;;;;3.20;1.10;;;28.30;62.40;;;;;;5011281;28;20570;-74
2023/07/21 12:19:03;;;;;;;3.23;1.50;;;28.50;63.10;;;;;;4992466;28;20205;-73
2023/07/21 12:21:30;;;;;;;5.87;1.60;;;28.80;64.50;;;;;;4993120;28;20589;-73
2023/07/21 12:23:56;;;;;;;3.43;1.37;;;29.20;64.60;;;;;;4993280;28;20597;-74
2023/07/21 12:26:22;;;;;;;1.70;1.10;;;29.50;64.30;;;;;;4993106;28;20633;-73
2023/07/21 12:28:50;;;;;;;2.83;1.20;;;29.80;64.50;;;;;;5009575;28;20400;-73
2023/07/21 12:31:16;;;;;;;3.47;1.23;;;30.20;64.80;;;;;;4992581;28;20607;-74
2023/07/21 12:33:44;;;;;;;2.77;1.40;;;30.50;64.10;;;;;;4997400;28;21170;-74
2023/07/21 12:36:11;;;;;;;4.33;2.10;;;30.90;63.90;;;;;;5012401;28;20654;-74
2023/07/21 12:38:37;;;;;;;3.50;1.90;;;31.10;62.30;;;;;;5030498;28;20573;-74
2023/07/21 12:41:03;;;;;;;2.20;1.50;;;31.20;60.50;;;;;;5011694;28;20620;-73
2023/07/21 12:43:29;;;;;;;5.13;1.27;;;31.20;59.30;;;;;;5011997;28;21348;-73
2023/07/21 12:45:55;;;;;;;2.57;1.00;;;31.10;58.50;;;;;;5030638;28;20174;-73
2023/07/21 12:48:20;;;;;;;1.83;0.87;;;31.00;58.00;;;;;;5012542;28;20198;-73
2023/07/21 12:50:47;;;;;;;1.50;0.80;;;30.80;58.00;;;;;;5012407;28;20282;-74
2023/07/21 12:53:13;;;;;;;2.27;0.90;;;30.60;57.10;;;;;;5029306;28;20649;-74
2023/07/21 12:55:39;;;;;;;3.10;0.90;;;30.30;56.70;;;;;;5030507;28;20659;-73
2023/07/21 12:58:05;;;;;;;3.63;0.90;;;30.20;56.50;;;;;;5012412;28;20178;-73